Time;durP1;ratioP1;P1;durP2;ratioP2;P2;SDS_P1;SDS_P2;PMS_P1;PMS_P2;Temp;Humidity;BMP_temperature;BMP_pressure;BME280_temperature;BME280_humidity;BME280_pressure;Samples;Min_cycle;Max_cycle;Signal;HPM_P1;HPM_P2
2022/09/24 00:00:39;;;;;;;;;;;14.70;99.90;;;;;;5063354;28;20459;-76
2022/09/24 00:03:04;;;;;;;;;;;14.60;99.90;;;;;;5063468;28;19920;-77
2022/09/24 00:05:35;;;;;;;;;;;14.50;99.90;;;;;;5064066;28;19912;-77
2022/09/24 00:08:00;;;;;;;;;;;14.50;99.90;;;;;;5063198;28;19956;-77
2022/09/24 00:10:26;;;;;;;;;;;14.50;99.90;;;;;;5063578;28;19958;-75
2022/09/24 00:12:51;;;;;;;;;;;14.50;99.90;;;;;;5063549;28;19917;-76
2022/09/24 00:15:17;;;;;;;;;;;14.40;99.90;;;;;;5062625;28;19916;-74
2022/09/24 00:17:42;;;;;;;;;;;14.50;99.90;;;;;;5062810;28;19925;-76
2022/09/24 00:20:08;;;;;;;;;;;14.50;99.90;;;;;;5062988;28;19931;-77
2022/09/24 00:22:33;;;;;;;;;;;14.50;99.90;;;;;;5062535;28;19916;-76
2022/09/24 00:27:43;;;;;;;;;;;14.50;99.90;;;;;;5060877;28;19923;-76
2022/09/24 00:30:09;;;;;;;;;;;14.80;99.90;;;;;;5072998;28;20605;-77
2022/09/24 00:32:34;;;;;;;;;;;14.80;99.90;;;;;;5083345;28;19958;-75
2022/09/24 00:35:00;;;;;;;;;;;14.90;99.90;;;;;;5064292;28;19920;-76
2022/09/24 00:37:27;;;;;;;;;;;15.00;99.90;;;;;;5062959;28;19920;-76
2022/09/24 00:39:52;;;;;;;;;;;15.10;99.90;;;;;;5054570;28;19920;-76
2022/09/24 00:42:19;;;;;;;;;;;15.20;99.90;;;;;;5063035;28;20421;-76
2022/09/24 00:44:45;;;;;;;;;;;15.30;99.90;;;;;;5061453;28;20565;-76
2022/09/24 00:47:17;;;;;;;;;;;15.30;99.90;;;;;;5063806;28;19923;-78
2022/09/24 00:49:43;;;;;;;;;;;15.40;99.90;;;;;;5063530;28;19954;-76
2022/09/24 00:52:08;;;;;;;;;;;15.50;99.90;;;;;;5063148;28;20270;-76
2022/09/24 00:54:34;;;;;;;;;;;15.50;99.90;;;;;;5062946;28;19919;-76
2022/09/24 00:57:00;;;;;;;;;;;15.40;99.90;;;;;;5062426;28;19920;-76
2022/09/24 00:59:26;;;;;;;;;;;15.40;99.90;;;;;;5062262;28;19939;-76
2022/09/24 01:01:56;;;;;;;;;;;15.40;99.90;;;;;;5065775;28;20137;-76
2022/09/24 01:04:22;;;;;;;;;;;15.30;99.90;;;;;;5056689;28;20366;-76
2022/09/24 01:06:48;;;;;;;;;;;15.30;99.90;;;;;;5046960;28;19947;-76
2022/09/24 01:09:15;;;;;;;;;;;15.20;99.90;;;;;;5046640;28;20021;-76
2022/09/24 01:11:40;;;;;;;;;;;15.20;99.90;;;;;;5046639;28;20447;-76
2022/09/24 01:14:06;;;;;;;;;;;15.10;99.90;;;;;;5045931;28;19913;-76
2022/09/24 01:16:31;;;;;;;;;;;15.20;99.90;;;;;;5046352;28;20611;-76
2022/09/24 01:19:17;;;;;;;;;;;15.30;99.90;;;;;;5046090;28;20054;-77
2022/09/24 01:21:49;;;;;;;;;;;15.30;99.90;;;;;;5045975;28;19917;-76
2022/09/24 01:24:15;;;;;;;;;;;15.30;99.90;;;;;;5044366;28;19916;-76
2022/09/24 01:26:54;;;;;;;;;;;15.30;99.90;;;;;;5045060;28;19917;-76
2022/09/24 01:29:40;;;;;;;;;;;15.40;99.90;;;;;;5045300;28;19916;-76
2022/09/24 01:32:42;;;;;;;;;;;15.40;99.90;;;;;;5026363;28;19913;-77
2022/09/24 01:35:15;;;;;;;;;;;15.50;99.90;;;;;;4977636;28;20009;-75
2022/09/24 01:37:43;;;;;;;;;;;15.40;99.90;;;;;;4983393;28;19934;-76
2022/09/24 01:40:10;;;;;;;;;;;15.40;99.90;;;;;;4983866;28;20444;-76
2022/09/24 01:42:37;;;;;;;;;;;15.40;99.90;;;;;;4983517;28;20497;-76
2022/09/24 01:45:02;;;;;;;;;;;15.30;99.90;;;;;;4984145;28;19960;-76
2022/09/24 01:47:30;;;;;;;;;;;15.30;99.90;;;;;;4983347;28;19917;-76
2022/09/24 01:49:55;;;;;;;;;;;15.20;99.90;;;;;;4983817;28;19921;-77
2022/09/24 01:52:24;;;;;;;;;;;15.20;99.90;;;;;;4983253;28;19917;-77
2022/09/24 01:54:51;;;;;;;;;;;15.30;99.90;;;;;;4983688;28;20004;-77
2022/09/24 01:57:16;;;;;;;;;;;15.30;99.90;;;;;;4982450;28;20029;-77
2022/09/24 02:00:14;;;;;;;;;;;15.30;99.90;;;;;;4983874;28;20016;-76
2022/09/24 02:03:01;;;;;;;;;;;15.30;99.90;;;;;;4963610;28;19926;-77
2022/09/24 02:05:35;;;;;;;;;;;15.20;99.90;;;;;;4964085;28;19918;-77
2022/09/24 02:08:01;;;;;;;;;;;15.20;99.90;;;;;;4965013;28;20396;-77
2022/09/24 02:10:28;;;;;;;;;;;15.20;99.90;;;;;;5011186;28;19925;-76
2022/09/24 02:12:58;;;;;;;;;;;15.10;99.90;;;;;;5022417;28;20018;-77
2022/09/24 02:15:36;;;;;;;;;;;15.00;99.90;;;;;;5021823;28;19917;-77
2022/09/24 02:18:07;;;;;;;;;;;15.10;99.90;;;;;;5022397;28;19925;-76
2022/09/24 02:20:33;;;;;;;;;;;15.00;99.90;;;;;;5022359;28;19917;-76
2022/09/24 02:22:59;;;;;;;;;;;15.00;99.90;;;;;;5022710;28;19917;-78
2022/09/24 02:25:47;;;;;;;;;;;15.10;99.90;;;;;;5022163;28;20103;-76
2022/09/24 02:28:13;;;;;;;;;;;15.10;99.90;;;;;;5022584;28;20291;-76
2022/09/24 02:30:42;;;;;;;;;;;15.10;99.90;;;;;;5022023;28;19936;-76
2022/09/24 02:34:19;;;;;;;;;;;15.00;99.90;;;;;;5021968;28;19913;-76
2022/09/24 02:35:54;;;;;;;;;;;15.00;99.90;;;;;;5009337;28;20632;-77
2022/09/24 02:38:20;;;;;;;;;;;14.90;99.90;;;;;;5043387;28;19953;-76
2022/09/24 02:40:46;;;;;;;;;;;15.00;99.90;;;;;;5062798;28;20782;-77
2022/09/24 02:43:12;;;;;;;;;;;14.90;99.90;;;;;;5064710;28;19927;-77
2022/09/24 02:45:37;;;;;;;;;;;14.90;99.90;;;;;;5064916;28;20305;-75
2022/09/24 02:48:03;;;;;;;;;;;15.00;99.90;;;;;;5064880;28;19923;-76
2022/09/24 02:50:28;;;;;;;;;;;14.90;99.90;;;;;;5062597;28;19916;-76
2022/09/24 02:52:54;;;;;;;;;;;14.90;99.90;;;;;;5064064;28;19917;-77
2022/09/24 02:55:20;;;;;;;;;;;15.00;99.90;;;;;;5064194;28;19924;-76
2022/09/24 02:57:46;;;;;;;;;;;15.00;99.90;;;;;;5064392;28;20630;-77
2022/09/24 03:00:12;;;;;;;;;;;15.10;99.90;;;;;;5064219;28;19916;-75
2022/09/24 03:02:37;;;;;;;;;;;14.80;99.90;;;;;;5063868;28;19924;-75
2022/09/24 03:05:03;;;;;;;;;;;15.00;99.90;;;;;;5063961;28;19917;-77
2022/09/24 03:07:29;;;;;;;;;;;14.80;99.90;;;;;;5064028;28;19917;-76
2022/09/24 03:09:54;;;;;;;;;;;14.80;99.90;;;;;;5063810;28;19916;-76
2022/09/24 03:12:20;;;;;;;;;;;14.90;99.90;;;;;;5063540;28;19978;-77
2022/09/24 03:14:46;;;;;;;;;;;14.90;99.90;;;;;;5063839;28;19917;-76
2022/09/24 03:17:11;;;;;;;;;;;14.70;99.90;;;;;;5063378;28;19924;-76
2022/09/24 03:19:37;;;;;;;;;;;14.70;99.90;;;;;;5064029;28;19920;-77
2022/09/24 03:22:02;;;;;;;;;;;14.80;99.90;;;;;;5063361;28;20454;-76
2022/09/24 03:24:28;;;;;;;;;;;14.70;99.90;;;;;;5062471;28;19927;-76
2022/09/24 03:26:53;;;;;;;;;;;14.60;99.90;;;;;;5063149;28;20019;-76
2022/09/24 03:30:58;;;;;;;;;;;14.70;99.90;;;;;;5061609;28;19950;-75
2022/09/24 03:32:04;;;;;;;;;;;14.60;99.90;;;;;;5063815;28;19923;-76
2022/09/24 03:34:30;;;;;;;;;;;14.60;99.90;;;;;;5063794;28;19924;-77
2022/09/24 03:36:55;;;;;;;;;;;14.50;99.90;;;;;;5064200;28;19931;-76
2022/09/24 03:39:21;;;;;;;;;;;14.50;99.90;;;;;;5062845;28;20385;-74
2022/09/24 03:41:46;;;;;;;;;;;14.60;99.90;;;;;;5063348;28;19920;-76
2022/09/24 03:44:12;;;;;;;;;;;14.70;99.90;;;;;;5063349;28;19926;-75
2022/09/24 03:46:38;;;;;;;;;;;14.70;99.90;;;;;;5063675;28;19952;-76
2022/09/24 03:49:03;;;;;;;;;;;14.60;99.90;;;;;;5063241;28;20459;-76
2022/09/24 03:51:29;;;;;;;;;;;14.60;99.90;;;;;;5063623;28;20023;-77
2022/09/24 03:53:54;;;;;;;;;;;14.60;99.90;;;;;;5062449;28;20444;-77
2022/09/24 03:56:20;;;;;;;;;;;14.60;99.90;;;;;;5063202;28;20663;-76
2022/09/24 03:58:46;;;;;;;;;;;14.50;99.90;;;;;;5063065;28;19923;-76
2022/09/24 04:01:12;;;;;;;;;;;14.70;99.90;;;;;;5063070;28;20317;-75
2022/09/24 04:03:39;;;;;;;;;;;14.70;99.90;;;;;;5062822;28;19919;-76
2022/09/24 04:06:05;;;;;;;;;;;14.70;99.90;;;;;;5063871;28;19913;-76
2022/09/24 04:08:31;;;;;;;;;;;14.70;99.90;;;;;;5063077;28;19958;-75
2022/09/24 04:10:56;;;;;;;;;;;14.70;99.90;;;;;;5063152;28;20008;-76
2022/09/24 04:13:22;;;;;;;;;;;14.70;99.90;;;;;;5063257;28;19990;-75
2022/09/24 04:15:49;;;;;;;;;;;14.70;99.90;;;;;;5063454;28;20448;-76
2022/09/24 04:18:14;;;;;;;;;;;14.70;99.90;;;;;;5063625;28;20727;-76
2022/09/24 04:20:40;;;;;;;;;;;14.80;99.90;;;;;;5063387;28;19983;-76
2022/09/24 04:23:06;;;;;;;;;;;14.80;99.90;;;;;;5062756;28;19916;-76
2022/09/24 04:25:32;;;;;;;;;;;14.90;99.90;;;;;;5063144;28;19923;-76
2022/09/24 04:28:02;;;;;;;;;;;14.90;99.90;;;;;;5062627;28;19916;-76
2022/09/24 04:30:29;;;;;;;;;;;14.80;99.90;;;;;;5062899;28;20400;-76
2022/09/24 04:32:54;;;;;;;;;;;14.90;99.90;;;;;;5062448;28;19916;-76
2022/09/24 04:35:21;;;;;;;;;;;15.00;99.90;;;;;;5063381;28;19938;-77
2022/09/24 04:37:47;;;;;;;;;;;15.00;99.90;;;;;;5065696;28;19925;-75
2022/09/24 04:40:13;;;;;;;;;;;14.90;99.90;;;;;;5067484;28;19961;-77
2022/09/24 04:42:39;;;;;;;;;;;15.00;99.90;;;;;;5067668;28;19935;-77
2022/09/24 04:45:05;;;;;;;;;;;14.80;99.90;;;;;;5066838;28;19985;-76
2022/09/24 04:47:30;;;;;;;;;;;14.80;99.90;;;;;;5066936;28;19912;-77
2022/09/24 04:49:56;;;;;;;;;;;14.90;99.90;;;;;;5066438;28;20589;-76
2022/09/24 04:52:25;;;;;;;;;;;14.90;99.90;;;;;;5066204;28;20389;-74
2022/09/24 04:54:51;;;;;;;;;;;14.80;99.90;;;;;;5066719;28;19912;-75
2022/09/24 04:57:16;;;;;;;;;;;14.80;99.90;;;;;;5066434;28;20001;-76
2022/09/24 04:59:43;;;;;;;;;;;14.80;99.90;;;;;;5066544;28;20023;-76
2022/09/24 05:02:09;;;;;;;;;;;14.80;99.90;;;;;;5066015;28;19925;-75
2022/09/24 05:04:35;;;;;;;;;;;14.90;99.90;;;;;;5065547;28;19917;-76
2022/09/24 05:07:00;;;;;;;;;;;14.90;99.90;;;;;;5066730;28;19916;-75
2022/09/24 05:09:26;;;;;;;;;;;14.80;99.90;;;;;;5066749;28;19924;-77
2022/09/24 05:11:51;;;;;;;;;;;14.80;99.90;;;;;;5066823;28;19916;-76
2022/09/24 05:14:17;;;;;;;;;;;14.80;99.90;;;;;;5066881;28;20401;-76
2022/09/24 05:16:42;;;;;;;;;;;14.80;99.90;;;;;;5066391;28;19924;-76
2022/09/24 05:19:08;;;;;;;;;;;14.70;99.90;;;;;;5065701;28;20157;-77
2022/09/24 05:21:34;;;;;;;;;;;14.70;99.90;;;;;;5066205;28;20698;-76
2022/09/24 05:23:59;;;;;;;;;;;14.80;99.90;;;;;;5065555;28;19923;-76
2022/09/24 05:29:09;;;;;;;;;;;14.70;99.90;;;;;;5064243;28;20643;-75
2022/09/24 05:31:35;;;;;;;;;;;14.70;99.90;;;;;;5066017;28;19921;-76
2022/09/24 05:34:02;;;;;;;;;;;14.70;99.90;;;;;;5064108;28;19916;-76
2022/09/24 05:36:28;;;;;;;;;;;14.70;99.90;;;;;;5066252;28;19931;-77
2022/09/24 05:38:53;;;;;;;;;;;14.70;99.90;;;;;;5065451;28;20379;-76
2022/09/24 05:41:19;;;;;;;;;;;14.60;99.90;;;;;;5064012;28;19925;-76
2022/09/24 05:43:45;;;;;;;;;;;14.60;99.90;;;;;;5065352;28;19947;-75
2022/09/24 05:46:10;;;;;;;;;;;14.70;99.90;;;;;;5063550;28;19912;-75
2022/09/24 05:48:36;;;;;;;;;;;14.80;99.90;;;;;;5063495;28;20460;-75
2022/09/24 05:51:02;;;;;;;;;;;14.80;99.90;;;;;;5065535;28;19923;-76
2022/09/24 05:53:27;;;;;;;;;;;14.70;99.90;;;;;;5063923;28;19983;-76
2022/09/24 05:55:53;;;;;;;;;;;14.80;99.90;;;;;;5065408;28;19917;-75
2022/09/24 05:58:19;;;;;;;;;;;14.70;99.90;;;;;;5064999;28;19920;-76
2022/09/24 06:00:44;;;;;;;;;;;14.60;99.90;;;;;;5065158;28;19982;-76
2022/09/24 06:03:12;;;;;;;;;;;14.50;99.90;;;;;;5064073;28;19955;-75
2022/09/24 06:05:37;;;;;;;;;;;14.60;99.90;;;;;;5064868;28;20676;-75
2022/09/24 06:08:03;;;;;;;;;;;14.70;99.90;;;;;;5064607;28;20026;-76
2022/09/24 06:10:29;;;;;;;;;;;14.70;99.90;;;;;;5064999;28;19963;-75
2022/09/24 06:12:55;;;;;;;;;;;14.70;99.90;;;;;;5063629;28;19964;-75
2022/09/24 06:15:21;;;;;;;;;;;14.60;99.90;;;;;;5065049;28;19912;-74
2022/09/24 06:17:46;;;;;;;;;;;14.50;99.90;;;;;;5065006;28;19958;-76
2022/09/24 06:20:12;;;;;;;;;;;14.60;99.90;;;;;;5065514;28;20873;-75
2022/09/24 06:22:38;;;;;;;;;;;14.60;99.90;;;;;;5064785;28;20511;-76
2022/09/24 06:25:04;;;;;;;;;;;14.70;99.90;;;;;;5065363;28;19946;-75
2022/09/24 06:27:29;;;;;;;;;;;14.80;99.90;;;;;;5064154;28;19924;-75
2022/09/24 06:29:55;;;;;;;;;;;14.90;99.90;;;;;;5064459;28;19934;-76
2022/09/24 06:32:22;;;;;;;;;;;15.10;99.90;;;;;;5063903;28;19923;-78
2022/09/24 06:34:47;;;;;;;;;;;16.20;99.90;;;;;;5063431;28;20413;-77
2022/09/24 06:37:13;;;;;;;;;;;16.30;99.90;;;;;;5064708;28;20026;-77
2022/09/24 06:39:38;;;;;;;;;;;16.60;99.90;;;;;;5065433;28;19919;-76
2022/09/24 06:42:05;;;;;;;;;;;16.30;99.90;;;;;;5065148;28;19912;-77
2022/09/24 06:44:33;;;;;;;;;;;16.20;99.90;;;;;;5062531;28;20461;-77
2022/09/24 06:47:00;;;;;;;;;;;16.30;99.90;;;;;;5061109;28;19923;-77
2022/09/24 06:49:25;;;;;;;;;;;16.20;99.90;;;;;;5056809;28;19951;-76
2022/09/24 06:51:52;;;;;;;;;;;16.20;99.90;;;;;;5063838;28;20014;-76
2022/09/24 06:54:19;;;;;;;;;;;16.10;99.90;;;;;;5064070;28;19952;-76
2022/09/24 06:56:44;;;;;;;;;;;16.00;99.90;;;;;;5062366;28;19947;-77
2022/09/24 06:59:10;;;;;;;;;;;15.70;99.90;;;;;;5063307;28;19923;-77
2022/09/24 07:01:35;;;;;;;;;;;15.50;99.90;;;;;;5064138;28;19920;-77
2022/09/24 07:04:01;;;;;;;;;;;15.90;99.90;;;;;;5064255;28;19923;-77
2022/09/24 07:07:28;;;;;;;;;;;16.80;99.90;;;;;;5062990;28;20309;-76
2022/09/24 07:09:12;;;;;;;;;;;18.00;99.90;;;;;;5063997;28;19916;-77
2022/09/24 07:11:38;;;;;;;;;;;18.20;99.90;;;;;;5063035;28;19917;-76
2022/09/24 07:14:03;;;;;;;;;;;18.60;99.90;;;;;;5062661;28;19916;-78
2022/09/24 07:16:29;;;;;;;;;;;18.70;99.90;;;;;;5062227;28;19925;-79
2022/09/24 07:18:54;;;;;;;;;;;18.40;99.90;;;;;;5062569;28;19923;-76
2022/09/24 07:21:20;;;;;;;;;;;18.50;99.90;;;;;;5062945;28;19913;-77
2022/09/24 07:23:46;;;;;;;;;;;19.20;99.90;;;;;;5062652;28;20003;-78
2022/09/24 07:26:11;;;;;;;;;;;18.80;99.90;;;;;;5045971;28;19955;-77
2022/09/24 07:28:37;;;;;;;;;;;18.60;99.90;;;;;;5076987;28;19916;-77
2022/09/24 07:31:03;;;;;;;;;;;18.30;99.90;;;;;;5040363;28;19916;-77
2022/09/24 07:33:30;;;;;;;;;;;17.70;99.90;;;;;;5055683;28;19916;-76
2022/09/24 07:35:55;;;;;;;;;;;17.40;99.90;;;;;;5062181;28;19948;-78
2022/09/24 07:38:21;;;;;;;;;;;17.30;99.90;;;;;;5062622;28;19955;-76
2022/09/24 07:40:46;;;;;;;;;;;17.00;99.90;;;;;;5063529;28;19959;-78
2022/09/24 07:43:13;;;;;;;;;;;17.00;99.90;;;;;;5062542;28;20126;-77
2022/09/24 07:45:39;;;;;;;;;;;17.10;99.90;;;;;;5063745;28;19912;-77
2022/09/24 07:48:05;;;;;;;;;;;17.00;99.90;;;;;;5061756;28;19917;-77
2022/09/24 07:50:31;;;;;;;;;;;17.60;99.90;;;;;;5062904;28;19916;-77
2022/09/24 07:52:57;;;;;;;;;;;19.60;99.90;;;;;;5062839;28;19923;-78
2022/09/24 07:55:23;;;;;;;;;;;20.60;99.90;;;;;;5062091;28;20734;-78
2022/09/24 07:57:49;;;;;;;;;;;19.60;99.90;;;;;;5062905;28;19924;-78
2022/09/24 08:00:16;;;;;;;;;;;19.60;99.90;;;;;;5060474;28;19916;-78
2022/09/24 08:02:42;;;;;;;;;;;21.10;99.90;;;;;;5058738;28;20002;-77
2022/09/24 08:05:08;;;;;;;;;;;20.20;99.90;;;;;;5062150;28;20649;-77
2022/09/24 08:07:34;;;;;;;;;;;18.50;99.90;;;;;;5061278;28;19916;-78
2022/09/24 08:10:00;;;;;;;;;;;18.00;99.90;;;;;;5062036;28;19916;-77
2022/09/24 08:12:26;;;;;;;;;;;19.50;99.90;;;;;;5050254;28;19959;-77
2022/09/24 08:14:52;;;;;;;;;;;20.70;99.90;;;;;;5049534;28;19917;-77
2022/09/24 08:17:18;;;;;;;;;;;21.60;99.90;;;;;;5049963;28;19932;-78
2022/09/24 08:19:45;;;;;;;;;;;22.50;99.90;;;;;;5049988;28;20007;-78
2022/09/24 08:22:13;;;;;;;;;;;23.60;99.90;;;;;;5053733;28;20110;-77
2022/09/24 08:24:39;;;;;;;;;;;24.10;98.70;;;;;;5053318;28;20393;-78
2022/09/24 08:27:04;;;;;;;;;;;24.30;97.70;;;;;;5066502;28;19916;-78
2022/09/24 08:29:30;;;;;;;;;;;24.60;97.00;;;;;;5064273;28;19917;-79
2022/09/24 08:31:55;;;;;;;;;;;24.40;94.90;;;;;;5065625;28;19912;-78
2022/09/24 08:34:21;;;;;;;;;;;23.80;97.20;;;;;;5066701;28;20007;-78
2022/09/24 08:36:46;;;;;;;;;;;24.10;95.40;;;;;;5066882;28;19959;-78
2022/09/24 08:39:14;;;;;;;;;;;22.40;97.80;;;;;;5066476;28;19924;-78
2022/09/24 08:41:45;;;;;;;;;;;22.10;98.60;;;;;;5066797;28;19917;-79
2022/09/24 08:47:21;;;;;;;;;;;24.00;96.40;;;;;;5065759;28;20007;-78
2022/09/24 08:49:47;;;;;;;;;;;21.90;98.40;;;;;;5067278;28;20408;-78
2022/09/24 08:52:30;;;;;;;;;;;21.20;99.90;;;;;;5065672;28;19923;-79
2022/09/24 08:55:01;;;;;;;;;;;21.20;99.90;;;;;;5066148;28;19920;-78
2022/09/24 08:57:27;;;;;;;;;;;24.40;97.20;;;;;;5066673;28;20009;-79
2022/09/24 08:59:52;;;;;;;;;;;24.80;94.70;;;;;;5061196;28;20279;-78
2022/09/24 09:02:31;;;;;;;;;;;23.50;95.70;;;;;;5060753;28;19935;-79
2022/09/24 09:05:13;;;;;;;;;;;22.80;97.40;;;;;;5065753;28;19917;-82
2022/09/24 09:08:08;;;;;;;;;;;20.90;99.20;;;;;;5064939;28;19923;-78
2022/09/24 09:10:36;;;;;;;;;;;23.20;98.70;;;;;;5043182;28;19916;-77
2022/09/24 09:13:16;;;;;;;;;;;23.00;97.40;;;;;;5032302;28;19917;-74
2022/09/24 09:15:44;;;;;;;;;;;24.20;95.70;;;;;;5023930;28;19917;-75
2022/09/24 09:18:11;;;;;;;;;;;24.90;93.20;;;;;;5021936;28;19932;-74
2022/09/24 09:20:39;;;;;;;;;;;24.30;93.10;;;;;;5021579;28;19916;-75
2022/09/24 09:23:12;;;;;;;;;;;24.00;95.70;;;;;;5022497;28;20530;-74
2022/09/24 09:25:41;;;;;;;;;;;23.50;94.20;;;;;;5024187;28;19924;-74
2022/09/24 09:28:14;;;;;;;;;;;21.70;97.60;;;;;;5020822;28;19957;-74
2022/09/24 09:31:02;;;;;;;;;;;21.20;98.00;;;;;;5026978;28;19989;-74
2022/09/24 09:33:34;;;;;;;;;;;20.90;98.80;;;;;;5021547;28;19924;-75
2022/09/24 09:36:02;;;;;;;;;;;20.00;99.60;;;;;;5024189;28;20596;-75
2022/09/24 09:38:33;;;;;;;;;;;19.50;99.70;;;;;;5020576;28;19928;-75
2022/09/24 09:41:05;;;;;;;;;;;20.50;98.20;;;;;;5022060;28;19917;-75
2022/09/24 09:43:31;;;;;;;;;;;21.20;97.90;;;;;;5022188;28;20238;-75
2022/09/24 09:46:06;;;;;;;;;;;21.40;95.10;;;;;;5023781;28;20445;-75
2022/09/24 09:48:45;;;;;;;;;;;21.50;94.10;;;;;;5062758;28;19919;-74
2022/09/24 09:51:18;;;;;;;;;;;22.10;93.80;;;;;;5083362;28;19962;-74
2022/09/24 09:53:52;;;;;;;;;;;22.10;94.50;;;;;;5046238;28;19948;-74
2022/09/24 09:56:22;;;;;;;;;;;21.90;93.60;;;;;;5058538;28;19967;-76
2022/09/24 09:58:52;;;;;;;;;;;22.20;93.70;;;;;;5064469;28;19931;-74
2022/09/24 10:01:17;;;;;;;;;;;22.10;93.40;;;;;;5063098;28;19935;-74
2022/09/24 10:03:43;;;;;;;;;;;21.10;93.30;;;;;;5063875;28;20400;-73
2022/09/24 10:06:10;;;;;;;;;;;20.80;94.60;;;;;;5064452;28;20490;-75
2022/09/24 10:08:36;;;;;;;;;;;20.30;95.20;;;;;;5065367;28;19908;-74
2022/09/24 10:11:02;;;;;;;;;;;20.50;95.60;;;;;;5065257;28;20288;-75
2022/09/24 10:13:27;;;;;;;;;;;20.40;96.00;;;;;;5062782;28;20408;-74
2022/09/24 10:15:57;;;;;;;;;;;20.70;94.20;;;;;;5096966;28;19927;-79
2022/09/24 10:18:26;;;;;;;;;;;20.90;93.80;;;;;;5062110;28;20878;-79
2022/09/24 10:20:52;;;;;;;;;;;21.30;92.40;;;;;;5064583;28;20297;-78
2022/09/24 10:23:20;;;;;;;;;;;21.30;92.80;;;;;;5062391;28;19916;-79
2022/09/24 10:25:50;;;;;;;;;;;21.20;93.90;;;;;;5063806;28;19920;-79
2022/09/24 10:31:05;;;;;;;;;;;22.00;93.40;;;;;;5063836;28;19969;-79
2022/09/24 10:33:38;;;;;;;;;;;22.20;92.20;;;;;;5064049;28;19916;-79
2022/09/24 10:36:06;;;;;;;;;;;22.20;91.20;;;;;;5064418;28;20385;-78
2022/09/24 10:38:32;;;;;;;;;;;22.10;91.40;;;;;;5063888;28;20668;-78
2022/09/24 10:40:58;;;;;;;;;;;22.00;91.70;;;;;;5064457;28;19921;-78
2022/09/24 10:43:23;;;;;;;;;;;22.10;91.00;;;;;;5063166;28;19918;-78
2022/09/24 10:45:59;;;;;;;;;;;22.20;90.40;;;;;;5064022;28;20359;-79
2022/09/24 10:48:26;;;;;;;;;;;22.20;90.40;;;;;;5063334;28;19995;-79
2022/09/24 10:50:54;;;;;;;;;;;21.80;85.40;;;;;;5063995;28;19917;-79
2022/09/24 10:53:30;;;;;;;;;;;21.60;87.40;;;;;;5063035;28;19912;-78
2022/09/24 10:56:02;;;;;;;;;;;21.20;84.60;;;;;;5062408;28;19977;-78
2022/09/24 10:58:33;;;;;;;;;;;21.40;84.50;;;;;;5062849;28;20043;-78
2022/09/24 11:01:10;;;;;;;;;;;21.30;81.60;;;;;;5055115;28;19931;-78
2022/09/24 11:03:54;;;;;;;;;;;21.70;81.80;;;;;;5050686;28;19916;-79
2022/09/24 11:06:32;;;;;;;;;;;21.50;82.70;;;;;;5054210;28;19927;-79
2022/09/24 11:09:16;;;;;;;;;;;21.70;83.20;;;;;;5060339;28;19916;-80
2022/09/24 11:11:44;;;;;;;;;;;21.60;84.20;;;;;;5053511;28;19916;-80
2022/09/24 11:14:23;;;;;;;;;;;21.30;86.30;;;;;;5085919;28;19916;-77
2022/09/24 11:17:16;;;;;;;;;;;21.30;89.30;;;;;;5053794;28;19950;-78
2022/09/24 11:19:44;;;;;;;;;;;21.60;89.80;;;;;;5056299;28;20609;-78
2022/09/24 11:22:42;;;;;;;;;;;21.70;86.70;;;;;;5058330;28;19921;-77
2022/09/24 11:25:37;;;;;;;;;;;21.60;85.90;;;;;;5038130;28;19967;-76
2022/09/24 11:28:06;;;;;;;;;;;21.70;86.40;;;;;;4978042;28;19925;-77
2022/09/24 11:30:32;;;;;;;;;;;21.80;87.30;;;;;;4976926;28;20478;-78
2022/09/24 11:33:06;;;;;;;;;;;22.00;88.80;;;;;;4977583;28;19926;-78
2022/09/24 11:35:49;;;;;;;;;;;21.90;89.30;;;;;;4979762;28;19918;-78
2022/09/24 11:38:21;;;;;;;;;;;21.80;87.90;;;;;;4979467;28;20032;-78
2022/09/24 11:41:09;;;;;;;;;;;21.80;85.70;;;;;;4980356;28;19939;-77
2022/09/24 11:43:54;;;;;;;;;;;21.80;86.70;;;;;;4978775;28;20807;-78
2022/09/24 11:46:35;;;;;;;;;;;21.60;85.70;;;;;;4973492;28;20013;-78
2022/09/24 11:49:19;;;;;;;;;;;21.50;87.80;;;;;;4975294;28;20383;-78
2022/09/24 11:51:52;;;;;;;;;;;21.40;89.30;;;;;;4968399;28;19918;-78
2022/09/24 11:54:29;;;;;;;;;;;21.30;88.50;;;;;;4972935;28;19922;-78
2022/09/24 11:56:58;;;;;;;;;;;21.30;88.80;;;;;;4973949;28;19993;-78
2022/09/24 11:59:35;;;;;;;;;;;21.50;89.30;;;;;;4979325;28;19917;-78
2022/09/24 12:02:13;;;;;;;;;;;21.50;90.00;;;;;;5019965;28;19929;-78
2022/09/24 12:04:51;;;;;;;;;;;21.70;89.00;;;;;;5044773;28;19916;-78
2022/09/24 12:07:35;;;;;;;;;;;21.30;90.20;;;;;;5062980;28;20378;-78
2022/09/24 12:10:00;;;;;;;;;;;20.80;90.30;;;;;;5063371;28;19916;-78
2022/09/24 12:12:38;;;;;;;;;;;21.30;90.80;;;;;;5062463;28;20807;-78
2022/09/24 12:15:18;;;;;;;;;;;21.50;90.00;;;;;;5062051;28;19931;-78
2022/09/24 12:17:49;;;;;;;;;;;21.60;90.20;;;;;;5062779;28;19935;-79
2022/09/24 12:20:19;;;;;;;;;;;21.50;90.90;;;;;;5062725;28;19922;-78
2022/09/24 12:22:46;;;;;;;;;;;21.80;90.60;;;;;;5062642;28;20035;-78
2022/09/24 12:25:12;;;;;;;;;;;21.60;90.50;;;;;;5060847;28;20411;-78
2022/09/24 12:27:38;;;;;;;;;;;21.90;90.60;;;;;;5062705;28;19916;-79
2022/09/24 12:32:58;;;;;;;;;;;21.60;90.60;;;;;;5062602;28;19990;-79
2022/09/24 12:35:41;;;;;;;;;;;21.30;91.70;;;;;;5062133;28;19993;-79
2022/09/24 12:38:18;;;;;;;;;;;20.90;93.30;;;;;;5062825;28;20418;-78
2022/09/24 12:40:50;;;;;;;;;;;20.30;92.80;;;;;;5062621;28;19912;-79
2022/09/24 12:43:30;;;;;;;;;;;20.10;93.40;;;;;;5062980;28;20452;-78
2022/09/24 12:45:57;;;;;;;;;;;20.40;93.80;;;;;;5062123;28;19916;-80
2022/09/24 12:48:24;;;;;;;;;;;20.70;93.60;;;;;;5061986;28;19916;-79
2022/09/24 12:50:55;;;;;;;;;;;21.40;92.60;;;;;;5063240;28;19917;-80
2022/09/24 12:53:23;;;;;;;;;;;22.00;90.30;;;;;;5061911;28;20016;-78
2022/09/24 12:55:49;;;;;;;;;;;22.00;90.70;;;;;;5062876;28;20411;-78
2022/09/24 12:58:26;;;;;;;;;;;21.90;90.50;;;;;;5065810;28;19981;-78
2022/09/24 13:01:03;;;;;;;;;;;22.10;90.20;;;;;;5064759;28;19969;-78
2022/09/24 13:03:32;;;;;;;;;;;21.80;90.20;;;;;;5065833;28;19923;-79
2022/09/24 13:05:59;;;;;;;;;;;21.80;90.50;;;;;;5066117;28;19955;-78
2022/09/24 13:08:38;;;;;;;;;;;22.30;90.70;;;;;;5065976;28;19924;-79
2022/09/24 13:11:23;;;;;;;;;;;22.20;90.80;;;;;;5064268;28;20033;-79
2022/09/24 13:13:57;;;;;;;;;;;21.50;91.10;;;;;;5057693;28;19923;-79
2022/09/24 13:16:22;;;;;;;;;;;21.50;90.80;;;;;;5063145;28;20438;-78
2022/09/24 13:18:52;;;;;;;;;;;21.60;91.00;;;;;;5065857;28;19925;-79
2022/09/24 13:21:20;;;;;;;;;;;21.20;90.60;;;;;;5066351;28;19936;-79
2022/09/24 13:23:47;;;;;;;;;;;20.50;91.10;;;;;;5064726;28;20343;-79
2022/09/24 13:26:24;;;;;;;;;;;20.50;91.60;;;;;;5065006;28;20007;-78
2022/09/24 13:28:51;;;;;;;;;;;20.70;91.80;;;;;;5064172;28;19921;-79
2022/09/24 13:31:21;;;;;;;;;;;20.60;92.00;;;;;;5065202;28;20289;-79
2022/09/24 13:33:55;;;;;;;;;;;20.80;92.50;;;;;;5064575;28;19993;-78
2022/09/24 13:36:33;;;;;;;;;;;20.90;90.80;;;;;;5064981;28;20373;-79
2022/09/24 13:39:17;;;;;;;;;;;21.10;91.10;;;;;;5073458;28;19920;-78
2022/09/24 13:41:55;;;;;;;;;;;21.00;90.70;;;;;;5079966;28;20392;-78
2022/09/24 13:44:26;;;;;;;;;;;21.30;91.20;;;;;;5065887;28;20301;-78
2022/09/24 13:46:58;;;;;;;;;;;21.00;91.10;;;;;;5064665;28;19924;-78
2022/09/24 13:49:25;;;;;;;;;;;20.90;91.00;;;;;;5064949;28;20013;-78
2022/09/24 13:51:56;;;;;;;;;;;21.00;90.80;;;;;;5064652;28;19916;-79
2022/09/24 13:54:28;;;;;;;;;;;20.80;91.70;;;;;;5060779;28;19947;-78
2022/09/24 13:56:58;;;;;;;;;;;20.80;91.50;;;;;;5067324;28;19935;-79
2022/09/24 13:59:24;;;;;;;;;;;20.80;91.40;;;;;;5064527;28;19920;-78
2022/09/24 14:01:49;;;;;;;;;;;21.00;91.00;;;;;;5064719;28;19963;-77
2022/09/24 14:04:15;;;;;;;;;;;20.70;91.70;;;;;;5064871;28;19920;-78
2022/09/24 14:06:50;;;;;;;;;;;20.70;91.90;;;;;;5068860;28;19916;-78
2022/09/24 14:09:22;;;;;;;;;;;20.40;91.90;;;;;;5088397;28;19912;-78
2022/09/24 14:11:49;;;;;;;;;;;20.20;92.00;;;;;;5065416;28;19916;-77
2022/09/24 14:14:17;;;;;;;;;;;20.10;92.30;;;;;;5062876;28;19977;-78
2022/09/24 14:16:42;;;;;;;;;;;20.10;92.70;;;;;;5062574;28;19943;-77
2022/09/24 14:19:12;;;;;;;;;;;20.20;93.10;;;;;;5064440;28;20380;-78
2022/09/24 14:21:40;;;;;;;;;;;20.00;92.50;;;;;;5064198;28;19916;-77
2022/09/24 14:24:21;;;;;;;;;;;20.00;92.70;;;;;;5064333;28;19917;-78
2022/09/24 14:26:55;;;;;;;;;;;19.90;93.10;;;;;;5062200;28;20739;-79
2022/09/24 14:29:24;;;;;;;;;;;19.80;93.10;;;;;;5061886;28;20398;-79
2022/09/24 14:31:51;;;;;;;;;;;19.70;93.10;;;;;;5063015;28;19963;-80
2022/09/24 14:34:19;;;;;;;;;;;19.70;93.30;;;;;;5063675;28;19970;-80
2022/09/24 14:36:45;;;;;;;;;;;19.90;93.80;;;;;;5062633;28;19924;-79
2022/09/24 14:39:12;;;;;;;;;;;20.10;93.90;;;;;;5067204;28;19916;-80
2022/09/24 14:41:37;;;;;;;;;;;19.90;93.90;;;;;;5067341;28;19916;-81